sensor_id;sensor_type;location;lat;lon;timestamp;temperature;humidity
14031;DHT22;7090;49.436;8.490;2022-09-19T00:00:41;8.40;99.90
14031;DHT22;7090;49.436;8.490;2022-09-19T00:03:07;8.40;99.90
14031;DHT22;7090;49.436;8.490;2022-09-19T00:05:37;8.40;99.90
14031;DHT22;7090;49.436;8.490;2022-09-19T00:08:03;8.40;99.90
14031;DHT22;7090;49.436;8.490;2022-09-19T00:10:29;8.40;99.90
14031;DHT22;7090;49.436;8.490;2022-09-19T00:12:55;8.30;99.90
14031;DHT22;7090;49.436;8.490;2022-09-19T00:15:21;8.20;99.90
14031;DHT22;7090;49.436;8.490;2022-09-19T00:17:49;8.10;99.90
14031;DHT22;7090;49.436;8.490;2022-09-19T00:20:15;8.10;99.90
14031;DHT22;7090;49.436;8.490;2022-09-19T00:22:41;8.20;99.90
14031;DHT22;7090;49.436;8.490;2022-09-19T00:25:26;8.10;99.90
14031;DHT22;7090;49.436;8.490;2022-09-19T00:27:54;8.10;99.90
14031;DHT22;7090;49.436;8.490;2022-09-19T00:30:20;8.10;99.90
14031;DHT22;7090;49.436;8.490;2022-09-19T00:32:45;8.10;99.90
14031;DHT22;7090;49.436;8.490;2022-09-19T00:35:12;8.10;99.90
14031;DHT22;7090;49.436;8.490;2022-09-19T00:37:38;8.00;99.90
14031;DHT22;7090;49.436;8.490;2022-09-19T00:40:05;8.00;99.90
14031;DHT22;7090;49.436;8.490;2022-09-19T00:42:30;8.00;99.90
14031;DHT22;7090;49.436;8.490;2022-09-19T00:45:00;8.00;99.90
14031;DHT22;7090;49.436;8.490;2022-09-19T00:47:31;7.90;99.90
14031;DHT22;7090;49.436;8.490;2022-09-19T00:50:00;8.00;99.90
14031;DHT22;7090;49.436;8.490;2022-09-19T00:53:01;8.00;99.90
14031;DHT22;7090;49.436;8.490;2022-09-19T00:55:29;8.00;99.90
14031;DHT22;7090;49.436;8.490;2022-09-19T01:00:25;7.90;99.90
14031;DHT22;7090;49.436;8.490;2022-09-19T01:02:51;7.90;99.90
14031;DHT22;7090;49.436;8.490;2022-09-19T01:05:19;7.80;99.90
14031;DHT22;7090;49.436;8.490;2022-09-19T01:13:34;7.80;99.90
14031;DHT22;7090;49.436;8.490;2022-09-19T01:16:22;7.70;99.90
14031;DHT22;7090;49.436;8.490;2022-09-19T01:19:00;7.70;99.90
14031;DHT22;7090;49.436;8.490;2022-09-19T01:21:44;7.70;99.90
14031;DHT22;7090;49.436;8.490;2022-09-19T01:24:36;7.70;99.90
14031;DHT22;7090;49.436;8.490;2022-09-19T01:27:23;7.70;99.90
14031;DHT22;7090;49.436;8.490;2022-09-19T01:30:11;7.70;99.90
14031;DHT22;7090;49.436;8.490;2022-09-19T01:33:03;7.70;99.90
14031;DHT22;7090;49.436;8.490;2022-09-19T01:35:34;7.70;99.90
14031;DHT22;7090;49.436;8.490;2022-09-19T01:38:24;7.70;99.90
14031;DHT22;7090;49.436;8.490;2022-09-19T01:40:51;7.70;99.90
14031;DHT22;7090;49.436;8.490;2022-09-19T01:43:18;7.70;99.90
14031;DHT22;7090;49.436;8.490;2022-09-19T01:45:46;7.70;99.90
14031;DHT22;7090;49.436;8.490;2022-09-19T01:53:27;7.60;99.90
14031;DHT22;7090;49.436;8.490;2022-09-19T01:56:12;7.70;99.90
14031;DHT22;7090;49.436;8.490;2022-09-19T01:58:53;7.70;99.90
14031;DHT22;7090;49.436;8.490;2022-09-19T02:01:35;7.70;99.90
14031;DHT22;7090;49.436;8.490;2022-09-19T02:04:19;7.60;99.90
14031;DHT22;7090;49.436;8.490;2022-09-19T02:06:55;7.60;99.90
14031;DHT22;7090;49.436;8.490;2022-09-19T02:12:01;7.50;99.90
14031;DHT22;7090;49.436;8.490;2022-09-19T02:14:31;7.50;99.90
14031;DHT22;7090;49.436;8.490;2022-09-19T02:17:05;7.40;99.90
14031;DHT22;7090;49.436;8.490;2022-09-19T02:19:36;7.40;99.90
14031;DHT22;7090;49.436;8.490;2022-09-19T02:22:07;7.40;99.90
14031;DHT22;7090;49.436;8.490;2022-09-19T02:24:36;7.40;99.90
14031;DHT22;7090;49.436;8.490;2022-09-19T02:27:09;7.40;99.90
14031;DHT22;7090;49.436;8.490;2022-09-19T02:29:40;7.50;99.90
14031;DHT22;7090;49.436;8.490;2022-09-19T02:32:10;7.60;99.90
14031;DHT22;7090;49.436;8.490;2022-09-19T02:34:37;7.60;99.90
14031;DHT22;7090;49.436;8.490;2022-09-19T02:40:01;7.60;99.90
14031;DHT22;7090;49.436;8.490;2022-09-19T02:45:23;7.90;99.90
14031;DHT22;7090;49.436;8.490;2022-09-19T02:48:05;8.00;99.90
14031;DHT22;7090;49.436;8.490;2022-09-19T02:50:40;8.00;99.90
14031;DHT22;7090;49.436;8.490;2022-09-19T02:53:13;8.10;99.90
14031;DHT22;7090;49.436;8.490;2022-09-19T02:55:43;8.20;99.90
14031;DHT22;7090;49.436;8.490;2022-09-19T02:58:13;8.20;99.90
14031;DHT22;7090;49.436;8.490;2022-09-19T03:00:41;8.30;99.90
14031;DHT22;7090;49.436;8.490;2022-09-19T03:03:16;8.30;99.90
14031;DHT22;7090;49.436;8.490;2022-09-19T03:06:02;8.40;99.90
14031;DHT22;7090;49.436;8.490;2022-09-19T03:08:31;8.50;99.90
14031;DHT22;7090;49.436;8.490;2022-09-19T03:11:05;8.50;99.90
14031;DHT22;7090;49.436;8.490;2022-09-19T03:13:33;8.50;99.90
14031;DHT22;7090;49.436;8.490;2022-09-19T03:16:09;8.50;99.90
14031;DHT22;7090;49.436;8.490;2022-09-19T03:18:38;8.60;99.90
14031;DHT22;7090;49.436;8.490;2022-09-19T03:21:08;8.70;99.90
14031;DHT22;7090;49.436;8.490;2022-09-19T03:23:52;8.70;99.90
14031;DHT22;7090;49.436;8.490;2022-09-19T03:26:20;8.70;99.90
14031;DHT22;7090;49.436;8.490;2022-09-19T03:28:46;8.70;99.90
14031;DHT22;7090;49.436;8.490;2022-09-19T03:31:12;8.70;99.90
14031;DHT22;7090;49.436;8.490;2022-09-19T03:33:38;8.70;99.90
14031;DHT22;7090;49.436;8.490;2022-09-19T03:36:06;8.80;99.90
14031;DHT22;7090;49.436;8.490;2022-09-19T03:38:34;8.80;99.90
14031;DHT22;7090;49.436;8.490;2022-09-19T03:40:59;8.80;99.90
14031;DHT22;7090;49.436;8.490;2022-09-19T03:43:25;8.80;99.90
14031;DHT22;7090;49.436;8.490;2022-09-19T03:45:51;8.90;99.90
14031;DHT22;7090;49.436;8.490;2022-09-19T03:48:17;8.90;99.90
14031;DHT22;7090;49.436;8.490;2022-09-19T03:50:42;9.00;99.90
14031;DHT22;7090;49.436;8.490;2022-09-19T03:53:08;8.90;99.90
14031;DHT22;7090;49.436;8.490;2022-09-19T03:55:35;8.90;99.90
14031;DHT22;7090;49.436;8.490;2022-09-19T03:58:05;8.90;99.90
14031;DHT22;7090;49.436;8.490;2022-09-19T04:00:31;8.90;99.90
14031;DHT22;7090;49.436;8.490;2022-09-19T04:02:57;8.90;99.90
14031;DHT22;7090;49.436;8.490;2022-09-19T04:05:22;8.80;99.90
14031;DHT22;7090;49.436;8.490;2022-09-19T04:07:48;8.90;99.90
14031;DHT22;7090;49.436;8.490;2022-09-19T04:10:14;8.80;99.90
14031;DHT22;7090;49.436;8.490;2022-09-19T04:12:41;8.80;99.90
14031;DHT22;7090;49.436;8.490;2022-09-19T04:15:07;8.80;99.90
14031;DHT22;7090;49.436;8.490;2022-09-19T04:17:33;8.70;99.90
14031;DHT22;7090;49.436;8.490;2022-09-19T04:19:59;8.70;99.90
14031;DHT22;7090;49.436;8.490;2022-09-19T04:22:25;8.70;99.90
14031;DHT22;7090;49.436;8.490;2022-09-19T04:24:50;8.70;99.90
14031;DHT22;7090;49.436;8.490;2022-09-19T04:27:18;8.70;99.90
14031;DHT22;7090;49.436;8.490;2022-09-19T04:29:43;8.70;99.90
14031;DHT22;7090;49.436;8.490;2022-09-19T04:32:10;8.70;99.90
14031;DHT22;7090;49.436;8.490;2022-09-19T04:34:36;8.70;99.90
14031;DHT22;7090;49.436;8.490;2022-09-19T04:37:02;8.70;99.90
14031;DHT22;7090;49.436;8.490;2022-09-19T04:39:29;8.70;99.90
14031;DHT22;7090;49.436;8.490;2022-09-19T04:41:55;8.70;99.90
14031;DHT22;7090;49.436;8.490;2022-09-19T04:44:21;8.80;99.90
14031;DHT22;7090;49.436;8.490;2022-09-19T04:46:48;8.80;99.90
14031;DHT22;7090;49.436;8.490;2022-09-19T04:49:18;8.80;99.90
14031;DHT22;7090;49.436;8.490;2022-09-19T04:51:44;8.80;99.90
14031;DHT22;7090;49.436;8.490;2022-09-19T04:54:11;8.90;99.90
14031;DHT22;7090;49.436;8.490;2022-09-19T04:56:37;8.90;99.90
14031;DHT22;7090;49.436;8.490;2022-09-19T04:59:03;8.90;99.90
14031;DHT22;7090;49.436;8.490;2022-09-19T05:01:29;9.00;99.90
14031;DHT22;7090;49.436;8.490;2022-09-19T05:03:58;9.00;99.90
14031;DHT22;7090;49.436;8.490;2022-09-19T05:06:24;9.00;99.90
14031;DHT22;7090;49.436;8.490;2022-09-19T05:08:54;9.00;99.90
14031;DHT22;7090;49.436;8.490;2022-09-19T05:11:19;9.00;99.90
14031;DHT22;7090;49.436;8.490;2022-09-19T05:13:47;8.90;99.90
14031;DHT22;7090;49.436;8.490;2022-09-19T05:16:14;8.90;99.90
14031;DHT22;7090;49.436;8.490;2022-09-19T05:18:41;9.00;99.90
14031;DHT22;7090;49.436;8.490;2022-09-19T05:21:10;9.00;99.90
14031;DHT22;7090;49.436;8.490;2022-09-19T05:23:37;8.90;99.90
14031;DHT22;7090;49.436;8.490;2022-09-19T05:26:08;9.00;99.90
14031;DHT22;7090;49.436;8.490;2022-09-19T05:28:34;9.00;99.90
14031;DHT22;7090;49.436;8.490;2022-09-19T05:31:00;9.10;99.90
14031;DHT22;7090;49.436;8.490;2022-09-19T05:33:30;9.10;99.90
14031;DHT22;7090;49.436;8.490;2022-09-19T05:35:58;9.10;99.90
14031;DHT22;7090;49.436;8.490;2022-09-19T05:38:26;9.10;99.90
14031;DHT22;7090;49.436;8.490;2022-09-19T05:40:53;9.10;99.90
14031;DHT22;7090;49.436;8.490;2022-09-19T05:43:19;9.20;99.90
14031;DHT22;7090;49.436;8.490;2022-09-19T05:45:45;9.30;99.90
14031;DHT22;7090;49.436;8.490;2022-09-19T05:48:12;9.30;99.90
14031;DHT22;7090;49.436;8.490;2022-09-19T05:50:38;9.20;99.90
14031;DHT22;7090;49.436;8.490;2022-09-19T05:53:03;9.20;99.90
14031;DHT22;7090;49.436;8.490;2022-09-19T05:55:47;9.20;99.90
14031;DHT22;7090;49.436;8.490;2022-09-19T05:58:14;9.30;99.90
14031;DHT22;7090;49.436;8.490;2022-09-19T06:00:43;9.30;99.90
14031;DHT22;7090;49.436;8.490;2022-09-19T06:03:12;9.30;99.90
14031;DHT22;7090;49.436;8.490;2022-09-19T06:05:44;9.30;99.90
14031;DHT22;7090;49.436;8.490;2022-09-19T06:08:11;9.40;99.90
14031;DHT22;7090;49.436;8.490;2022-09-19T06:10:40;9.50;99.90
14031;DHT22;7090;49.436;8.490;2022-09-19T06:13:06;9.50;99.90
14031;DHT22;7090;49.436;8.490;2022-09-19T06:15:34;9.60;99.90
14031;DHT22;7090;49.436;8.490;2022-09-19T06:17:59;9.70;99.90
14031;DHT22;7090;49.436;8.490;2022-09-19T06:20:26;9.70;99.90
14031;DHT22;7090;49.436;8.490;2022-09-19T06:23:00;9.80;99.90
14031;DHT22;7090;49.436;8.490;2022-09-19T06:25:30;9.80;99.90
14031;DHT22;7090;49.436;8.490;2022-09-19T06:28:00;9.90;99.90
14031;DHT22;7090;49.436;8.490;2022-09-19T06:30:27;10.00;99.90
14031;DHT22;7090;49.436;8.490;2022-09-19T06:32:53;10.00;99.90
14031;DHT22;7090;49.436;8.490;2022-09-19T06:35:20;10.10;99.90
14031;DHT22;7090;49.436;8.490;2022-09-19T06:37:46;10.20;99.90
14031;DHT22;7090;49.436;8.490;2022-09-19T06:40:13;10.30;99.90
14031;DHT22;7090;49.436;8.490;2022-09-19T06:42:39;10.40;99.90
14031;DHT22;7090;49.436;8.490;2022-09-19T06:45:06;10.50;99.90
14031;DHT22;7090;49.436;8.490;2022-09-19T06:47:33;10.70;99.90
14031;DHT22;7090;49.436;8.490;2022-09-19T06:49:59;10.70;99.90
14031;DHT22;7090;49.436;8.490;2022-09-19T06:52:28;10.80;99.90
14031;DHT22;7090;49.436;8.490;2022-09-19T06:54:54;10.80;99.90
14031;DHT22;7090;49.436;8.490;2022-09-19T06:57:20;10.90;99.90
14031;DHT22;7090;49.436;8.490;2022-09-19T06:59:46;11.10;99.90
14031;DHT22;7090;49.436;8.490;2022-09-19T07:02:12;11.20;99.90
14031;DHT22;7090;49.436;8.490;2022-09-19T07:04:39;11.40;99.90
14031;DHT22;7090;49.436;8.490;2022-09-19T07:07:05;11.50;99.90
14031;DHT22;7090;49.436;8.490;2022-09-19T07:09:31;11.70;99.90
14031;DHT22;7090;49.436;8.490;2022-09-19T07:11:57;11.70;99.90
14031;DHT22;7090;49.436;8.490;2022-09-19T07:14:26;12.20;99.90
14031;DHT22;7090;49.436;8.490;2022-09-19T07:16:51;12.70;99.90
14031;DHT22;7090;49.436;8.490;2022-09-19T07:19:17;13.10;99.90
14031;DHT22;7090;49.436;8.490;2022-09-19T07:21:43;13.40;99.90
14031;DHT22;7090;49.436;8.490;2022-09-19T07:24:09;13.00;99.90
14031;DHT22;7090;49.436;8.490;2022-09-19T07:26:34;13.00;99.90
14031;DHT22;7090;49.436;8.490;2022-09-19T07:29:00;13.10;99.90
14031;DHT22;7090;49.436;8.490;2022-09-19T07:31:27;13.00;99.90
14031;DHT22;7090;49.436;8.490;2022-09-19T07:33:53;13.10;99.90
14031;DHT22;7090;49.436;8.490;2022-09-19T07:36:19;13.20;99.90
14031;DHT22;7090;49.436;8.490;2022-09-19T07:38:47;13.20;99.90
14031;DHT22;7090;49.436;8.490;2022-09-19T07:41:14;13.40;99.90
14031;DHT22;7090;49.436;8.490;2022-09-19T07:43:41;13.60;99.90
14031;DHT22;7090;49.436;8.490;2022-09-19T07:46:06;13.80;99.90
14031;DHT22;7090;49.436;8.490;2022-09-19T07:48:32;13.80;99.90
14031;DHT22;7090;49.436;8.490;2022-09-19T07:50:57;13.60;99.90
14031;DHT22;7090;49.436;8.490;2022-09-19T07:53:24;13.30;99.90
14031;DHT22;7090;49.436;8.490;2022-09-19T07:55:51;13.20;99.90
14031;DHT22;7090;49.436;8.490;2022-09-19T07:58:21;13.30;99.90
14031;DHT22;7090;49.436;8.490;2022-09-19T08:00:47;13.20;99.90
14031;DHT22;7090;49.436;8.490;2022-09-19T08:03:16;13.20;99.90
14031;DHT22;7090;49.436;8.490;2022-09-19T08:05:44;13.30;99.90
14031;DHT22;7090;49.436;8.490;2022-09-19T08:08:12;13.40;99.90
14031;DHT22;7090;49.436;8.490;2022-09-19T08:10:39;13.60;99.90
14031;DHT22;7090;49.436;8.490;2022-09-19T08:13:06;13.60;99.90
14031;DHT22;7090;49.436;8.490;2022-09-19T08:15:34;13.60;99.90
14031;DHT22;7090;49.436;8.490;2022-09-19T08:18:05;13.60;99.90
14031;DHT22;7090;49.436;8.490;2022-09-19T08:20:33;13.70;99.90
14031;DHT22;7090;49.436;8.490;2022-09-19T08:23:04;13.90;99.90
14031;DHT22;7090;49.436;8.490;2022-09-19T08:25:32;14.00;99.90
14031;DHT22;7090;49.436;8.490;2022-09-19T08:27:58;13.90;99.90
14031;DHT22;7090;49.436;8.490;2022-09-19T08:30:25;14.00;99.90
14031;DHT22;7090;49.436;8.490;2022-09-19T08:32:54;13.90;99.90
14031;DHT22;7090;49.436;8.490;2022-09-19T08:35:22;14.00;99.90
14031;DHT22;7090;49.436;8.490;2022-09-19T08:37:56;14.20;99.90
14031;DHT22;7090;49.436;8.490;2022-09-19T08:40:31;14.50;99.90
14031;DHT22;7090;49.436;8.490;2022-09-19T08:43:12;14.60;1.00
14031;DHT22;7090;49.436;8.490;2022-09-19T08:48:33;15.00;1.00
14031;DHT22;7090;49.436;8.490;2022-09-19T08:51:14;15.10;1.00
14031;DHT22;7090;49.436;8.490;2022-09-19T08:53:45;15.20;1.00
14031;DHT22;7090;49.436;8.490;2022-09-19T08:56:13;15.20;1.00
14031;DHT22;7090;49.436;8.490;2022-09-19T08:58:47;15.20;1.00
14031;DHT22;7090;49.436;8.490;2022-09-19T09:01:16;15.20;1.00
14031;DHT22;7090;49.436;8.490;2022-09-19T09:09:58;15.50;1.00
14031;DHT22;7090;49.436;8.490;2022-09-19T09:12:41;15.70;99.90
14031;DHT22;7090;49.436;8.490;2022-09-19T09:15:38;16.10;99.90
14031;DHT22;7090;49.436;8.490;2022-09-19T09:23:48;16.60;1.00
14031;DHT22;7090;49.436;8.490;2022-09-19T09:26:27;16.70;1.00
14031;DHT22;7090;49.436;8.490;2022-09-19T09:32:04;17.00;1.00
14031;DHT22;7090;49.436;8.490;2022-09-19T09:34:38;17.10;1.00
14031;DHT22;7090;49.436;8.490;2022-09-19T09:56:16;15.70;84.80
14031;DHT22;7090;49.436;8.490;2022-09-19T10:01:42;15.90;99.90
14031;DHT22;7090;49.436;8.490;2022-09-19T10:04:39;16.20;99.90
14031;DHT22;7090;49.436;8.490;2022-09-19T10:10:17;16.50;1.00
14031;DHT22;7090;49.436;8.490;2022-09-19T10:12:55;16.70;1.00
14031;DHT22;7090;49.436;8.490;2022-09-19T10:15:23;16.90;1.00
14031;DHT22;7090;49.436;8.490;2022-09-19T10:17:56;16.80;1.00
14031;DHT22;7090;49.436;8.490;2022-09-19T10:20:32;16.80;99.90
14031;DHT22;7090;49.436;8.490;2022-09-19T10:23:00;16.60;1.00
14031;DHT22;7090;49.436;8.490;2022-09-19T10:25:25;16.60;1.00
14031;DHT22;7090;49.436;8.490;2022-09-19T10:27:51;16.10;1.00
14031;DHT22;7090;49.436;8.490;2022-09-19T10:30:21;16.00;1.00
14031;DHT22;7090;49.436;8.490;2022-09-19T10:32:51;16.10;1.00
14031;DHT22;7090;49.436;8.490;2022-09-19T10:35:39;16.20;1.00
14031;DHT22;7090;49.436;8.490;2022-09-19T10:38:11;16.10;1.00
14031;DHT22;7090;49.436;8.490;2022-09-19T10:40:59;15.90;1.00
14031;DHT22;7090;49.436;8.490;2022-09-19T10:43:32;16.00;1.00
14031;DHT22;7090;49.436;8.490;2022-09-19T10:46:03;16.00;1.00
14031;DHT22;7090;49.436;8.490;2022-09-19T10:48:33;15.80;1.00
14031;DHT22;7090;49.436;8.490;2022-09-19T10:50:59;15.90;1.00
14031;DHT22;7090;49.436;8.490;2022-09-19T10:53:30;16.00;1.00
14031;DHT22;7090;49.436;8.490;2022-09-19T10:56:17;16.10;99.90
14031;DHT22;7090;49.436;8.490;2022-09-19T10:58:48;16.40;61.30
14031;DHT22;7090;49.436;8.490;2022-09-19T11:01:21;16.80;1.00
14031;DHT22;7090;49.436;8.490;2022-09-19T11:04:27;16.90;1.00
14031;DHT22;7090;49.436;8.490;2022-09-19T11:07:00;17.10;99.90
14031;DHT22;7090;49.436;8.490;2022-09-19T11:09:37;17.20;99.90
14031;DHT22;7090;49.436;8.490;2022-09-19T11:12:13;17.00;99.90
14031;DHT22;7090;49.436;8.490;2022-09-19T11:14:47;17.20;99.90
14031;DHT22;7090;49.436;8.490;2022-09-19T11:17:49;17.40;99.90
14031;DHT22;7090;49.436;8.490;2022-09-19T11:23:27;17.30;1.00
14031;DHT22;7090;49.436;8.490;2022-09-19T11:29:08;17.00;1.00
14031;DHT22;7090;49.436;8.490;2022-09-19T11:37:50;17.10;1.00
14031;DHT22;7090;49.436;8.490;2022-09-19T11:46:13;17.10;1.00
14031;DHT22;7090;49.436;8.490;2022-09-19T12:11:55;17.60;1.00
14031;DHT22;7090;49.436;8.490;2022-09-19T12:14:29;17.60;1.00
14031;DHT22;7090;49.436;8.490;2022-09-19T12:17:08;17.60;1.00
14031;DHT22;7090;49.436;8.490;2022-09-19T12:19:43;17.70;1.00
14031;DHT22;7090;49.436;8.490;2022-09-19T12:22:43;17.90;1.00
14031;DHT22;7090;49.436;8.490;2022-09-19T12:25:18;18.10;54.90
14031;DHT22;7090;49.436;8.490;2022-09-19T12:27:59;18.10;99.90
14031;DHT22;7090;49.436;8.490;2022-09-19T12:30:32;18.60;1.00
14031;DHT22;7090;49.436;8.490;2022-09-19T12:36:28;19.20;99.90
14031;DHT22;7090;49.436;8.490;2022-09-19T12:39:03;18.50;99.90
14031;DHT22;7090;49.436;8.490;2022-09-19T12:41:54;18.40;99.90
14031;DHT22;7090;49.436;8.490;2022-09-19T12:44:29;18.10;99.90
14031;DHT22;7090;49.436;8.490;2022-09-19T12:50:17;17.60;1.00
14031;DHT22;7090;49.436;8.490;2022-09-19T12:52:57;16.90;98.30
14031;DHT22;7090;49.436;8.490;2022-09-19T12:55:29;15.90;1.00
14031;DHT22;7090;49.436;8.490;2022-09-19T12:58:13;15.30;99.90
14031;DHT22;7090;49.436;8.490;2022-09-19T13:00:42;14.80;99.90
14031;DHT22;7090;49.436;8.490;2022-09-19T13:03:20;14.10;99.90
14031;DHT22;7090;49.436;8.490;2022-09-19T13:06:16;13.80;99.90
14031;DHT22;7090;49.436;8.490;2022-09-19T13:13:55;13.30;99.90
14031;DHT22;7090;49.436;8.490;2022-09-19T13:16:31;13.20;99.90
14031;DHT22;7090;49.436;8.490;2022-09-19T13:18:57;13.20;99.90
14031;DHT22;7090;49.436;8.490;2022-09-19T13:21:44;13.10;99.90
14031;DHT22;7090;49.436;8.490;2022-09-19T13:27:06;13.30;99.90
14031;DHT22;7090;49.436;8.490;2022-09-19T13:31:58;13.60;99.90
14031;DHT22;7090;49.436;8.490;2022-09-19T13:36:59;14.30;99.90
14031;DHT22;7090;49.436;8.490;2022-09-19T13:42:27;15.00;99.90
14031;DHT22;7090;49.436;8.490;2022-09-19T13:45:12;15.40;99.90
14031;DHT22;7090;49.436;8.490;2022-09-19T13:47:44;16.00;99.90
14031;DHT22;7090;49.436;8.490;2022-09-19T13:50:23;16.70;1.00
14031;DHT22;7090;49.436;8.490;2022-09-19T13:52:57;17.40;1.00
14031;DHT22;7090;49.436;8.490;2022-09-19T13:55:37;17.90;99.90
14031;DHT22;7090;49.436;8.490;2022-09-19T13:58:39;17.60;1.00
14031;DHT22;7090;49.436;8.490;2022-09-19T14:03:35;17.00;1.00
14031;DHT22;7090;49.436;8.490;2022-09-19T14:06:28;17.10;1.00
14031;DHT22;7090;49.436;8.490;2022-09-19T14:11:40;17.70;1.00
14031;DHT22;7090;49.436;8.490;2022-09-19T14:35:45;16.50;1.00
14031;DHT22;7090;49.436;8.490;2022-09-19T14:38:28;16.50;1.00
14031;DHT22;7090;49.436;8.490;2022-09-19T14:41:24;16.50;99.90
14031;DHT22;7090;49.436;8.490;2022-09-19T14:44:09;15.80;1.00
14031;DHT22;7090;49.436;8.490;2022-09-19T14:46:47;15.20;1.00
14031;DHT22;7090;49.436;8.490;2022-09-19T14:49:35;14.80;1.00
14031;DHT22;7090;49.436;8.490;2022-09-19T14:52:12;14.60;45.90
14031;DHT22;7090;49.436;8.490;2022-09-19T14:57:14;14.50;92.20
14031;DHT22;7090;49.436;8.490;2022-09-19T14:59:40;14.70;99.90
14031;DHT22;7090;49.436;8.490;2022-09-19T15:04:41;15.20;99.90
14031;DHT22;7090;49.436;8.490;2022-09-19T15:07:09;15.40;99.90
14031;DHT22;7090;49.436;8.490;2022-09-19T15:09:37;15.70;99.90
14031;DHT22;7090;49.436;8.490;2022-09-19T15:12:20;16.10;1.00
14031;DHT22;7090;49.436;8.490;2022-09-19T15:14:48;16.10;1.00
14031;DHT22;7090;49.436;8.490;2022-09-19T15:17:40;16.50;1.00
14031;DHT22;7090;49.436;8.490;2022-09-19T15:22:50;15.70;1.00
14031;DHT22;7090;49.436;8.490;2022-09-19T15:25:33;15.30;1.00
14031;DHT22;7090;49.436;8.490;2022-09-19T15:28:02;15.00;99.90
14031;DHT22;7090;49.436;8.490;2022-09-19T15:30:30;14.90;99.90
14031;DHT22;7090;49.436;8.490;2022-09-19T15:33:09;14.60;99.90
14031;DHT22;7090;49.436;8.490;2022-09-19T15:35:39;14.90;99.90
14031;DHT22;7090;49.436;8.490;2022-09-19T15:38:10;14.90;99.90
14031;DHT22;7090;49.436;8.490;2022-09-19T15:40:38;14.90;99.90
14031;DHT22;7090;49.436;8.490;2022-09-19T15:43:10;14.90;99.90
14031;DHT22;7090;49.436;8.490;2022-09-19T15:45:43;14.90;99.90
14031;DHT22;7090;49.436;8.490;2022-09-19T15:48:33;15.00;99.90
14031;DHT22;7090;49.436;8.490;2022-09-19T15:51:02;15.00;99.90
14031;DHT22;7090;49.436;8.490;2022-09-19T15:53:40;15.10;99.90
14031;DHT22;7090;49.436;8.490;2022-09-19T15:56:09;15.40;99.90
14031;DHT22;7090;49.436;8.490;2022-09-19T15:58:39;15.60;99.90
14031;DHT22;7090;49.436;8.490;2022-09-19T16:01:14;15.60;1.00
14031;DHT22;7090;49.436;8.490;2022-09-19T16:06:35;15.70;99.90
14031;DHT22;7090;49.436;8.490;2022-09-19T16:10:08;15.60;9.50
14031;DHT22;7090;49.436;8.490;2022-09-19T16:12:47;15.60;1.00
14031;DHT22;7090;49.436;8.490;2022-09-19T16:23:17;16.40;1.00
14031;DHT22;7090;49.436;8.490;2022-09-19T16:25:55;16.20;1.00
14031;DHT22;7090;49.436;8.490;2022-09-19T16:33:38;15.70;1.00
14031;DHT22;7090;49.436;8.490;2022-09-19T16:36:09;15.70;1.00
14031;DHT22;7090;49.436;8.490;2022-09-19T16:38:37;15.50;1.00
14031;DHT22;7090;49.436;8.490;2022-09-19T16:41:06;15.60;1.00
14031;DHT22;7090;49.436;8.490;2022-09-19T16:43:40;15.60;1.00
14031;DHT22;7090;49.436;8.490;2022-09-19T16:46:10;15.60;1.00
14031;DHT22;7090;49.436;8.490;2022-09-19T16:48:36;15.60;1.00
14031;DHT22;7090;49.436;8.490;2022-09-19T16:51:02;15.50;1.00
14031;DHT22;7090;49.436;8.490;2022-09-19T16:53:30;15.40;17.40
14031;DHT22;7090;49.436;8.490;2022-09-19T16:55:56;15.40;94.30
14031;DHT22;7090;49.436;8.490;2022-09-19T16:58:22;15.30;99.90
14031;DHT22;7090;49.436;8.490;2022-09-19T17:00:48;15.20;99.90
14031;DHT22;7090;49.436;8.490;2022-09-19T17:03:14;15.20;1.00
14031;DHT22;7090;49.436;8.490;2022-09-19T17:05:43;15.10;1.00
14031;DHT22;7090;49.436;8.490;2022-09-19T17:08:08;15.00;1.00
14031;DHT22;7090;49.436;8.490;2022-09-19T17:10:35;14.90;1.00
14031;DHT22;7090;49.436;8.490;2022-09-19T17:13:02;14.90;1.00
14031;DHT22;7090;49.436;8.490;2022-09-19T17:18:03;14.70;99.90
14031;DHT22;7090;49.436;8.490;2022-09-19T17:20:29;14.60;99.90
14031;DHT22;7090;49.436;8.490;2022-09-19T17:22:55;14.40;99.90
14031;DHT22;7090;49.436;8.490;2022-09-19T17:25:26;14.20;99.90
14031;DHT22;7090;49.436;8.490;2022-09-19T17:27:56;14.10;99.90
14031;DHT22;7090;49.436;8.490;2022-09-19T17:30:22;14.00;99.90
14031;DHT22;7090;49.436;8.490;2022-09-19T17:32:48;14.10;99.90
14031;DHT22;7090;49.436;8.490;2022-09-19T17:35:17;14.10;99.90
14031;DHT22;7090;49.436;8.490;2022-09-19T17:37:44;14.10;99.90
14031;DHT22;7090;49.436;8.490;2022-09-19T17:40:10;14.00;99.90
14031;DHT22;7090;49.436;8.490;2022-09-19T17:42:38;13.80;99.90
14031;DHT22;7090;49.436;8.490;2022-09-19T17:45:06;13.70;99.90
14031;DHT22;7090;49.436;8.490;2022-09-19T17:47:32;13.60;99.90
14031;DHT22;7090;49.436;8.490;2022-09-19T17:49:57;13.50;99.90
14031;DHT22;7090;49.436;8.490;2022-09-19T17:52:24;13.40;99.90
14031;DHT22;7090;49.436;8.490;2022-09-19T17:54:49;13.10;99.90
14031;DHT22;7090;49.436;8.490;2022-09-19T17:57:15;13.10;99.90
14031;DHT22;7090;49.436;8.490;2022-09-19T17:59:41;13.00;99.90
14031;DHT22;7090;49.436;8.490;2022-09-19T18:02:07;12.90;99.90
14031;DHT22;7090;49.436;8.490;2022-09-19T18:04:51;12.80;99.90
14031;DHT22;7090;49.436;8.490;2022-09-19T18:07:17;12.80;99.90
14031;DHT22;7090;49.436;8.490;2022-09-19T18:09:43;12.70;99.90
14031;DHT22;7090;49.436;8.490;2022-09-19T18:12:09;12.60;99.90
14031;DHT22;7090;49.436;8.490;2022-09-19T18:14:34;12.50;99.90
14031;DHT22;7090;49.436;8.490;2022-09-19T18:17:00;12.40;99.90
14031;DHT22;7090;49.436;8.490;2022-09-19T18:19:26;12.30;99.90
14031;DHT22;7090;49.436;8.490;2022-09-19T18:21:51;12.30;99.90
14031;DHT22;7090;49.436;8.490;2022-09-19T18:24:17;12.40;99.90
14031;DHT22;7090;49.436;8.490;2022-09-19T18:26:42;12.40;99.90
14031;DHT22;7090;49.436;8.490;2022-09-19T18:29:10;12.40;99.90
14031;DHT22;7090;49.436;8.490;2022-09-19T18:31:36;12.40;99.90
14031;DHT22;7090;49.436;8.490;2022-09-19T18:34:01;12.50;99.90
14031;DHT22;7090;49.436;8.490;2022-09-19T18:36:28;12.40;99.90
14031;DHT22;7090;49.436;8.490;2022-09-19T18:38:53;12.50;99.90
14031;DHT22;7090;49.436;8.490;2022-09-19T18:41:24;12.60;99.90
14031;DHT22;7090;49.436;8.490;2022-09-19T18:43:54;12.70;99.90
14031;DHT22;7090;49.436;8.490;2022-09-19T18:46:22;12.70;99.90
14031;DHT22;7090;49.436;8.490;2022-09-19T18:48:49;12.70;99.90
14031;DHT22;7090;49.436;8.490;2022-09-19T18:51:19;12.80;99.90
14031;DHT22;7090;49.436;8.490;2022-09-19T18:53:48;12.80;99.90
14031;DHT22;7090;49.436;8.490;2022-09-19T18:56:15;12.70;99.90
14031;DHT22;7090;49.436;8.490;2022-09-19T18:58:41;12.80;99.90
14031;DHT22;7090;49.436;8.490;2022-09-19T19:01:11;12.80;99.90
14031;DHT22;7090;49.436;8.490;2022-09-19T19:03:42;12.90;99.90
14031;DHT22;7090;49.436;8.490;2022-09-19T19:06:13;12.90;99.90
14031;DHT22;7090;49.436;8.490;2022-09-19T19:08:39;12.90;99.90
14031;DHT22;7090;49.436;8.490;2022-09-19T19:11:15;12.90;99.90
14031;DHT22;7090;49.436;8.490;2022-09-19T19:13:41;13.00;99.90
14031;DHT22;7090;49.436;8.490;2022-09-19T19:16:09;12.80;99.90
14031;DHT22;7090;49.436;8.490;2022-09-19T19:18:36;12.70;99.90
14031;DHT22;7090;49.436;8.490;2022-09-19T19:21:10;12.60;99.90